Aviation Digital Data Service (ADDS)

Output produced by METARs form (0108 UTC 24 August 2017)
found at http://www.aviationweather.gov/adds/metars/
 
KSIF 240050Z AUTO 00000KT 5SM BR SCT070 SCT080 22/22 A2985 RMK AO2 T02220216